sensor_id;sensor_type;location;lat;lon;timestamp;temperature;humidity
54082;DHT22;39986;50.770;0.266;2024-01-30T00:01:41;11.70;99.90
54082;DHT22;39986;50.770;0.266;2024-01-30T00:04:07;11.70;99.90
54082;DHT22;39986;50.770;0.266;2024-01-30T00:08:58;11.70;99.90
54082;DHT22;39986;50.770;0.266;2024-01-30T00:13:51;11.80;99.90
54082;DHT22;39986;50.770;0.266;2024-01-30T00:18:42;11.90;99.90
54082;DHT22;39986;50.770;0.266;2024-01-30T00:23:34;11.80;99.90
54082;DHT22;39986;50.770;0.266;2024-01-30T00:25:59;11.90;99.90
54082;DHT22;39986;50.770;0.266;2024-01-30T00:28:25;11.90;99.90
54082;DHT22;39986;50.770;0.266;2024-01-30T00:30:50;12.50;99.90
54082;DHT22;39986;50.770;0.266;2024-01-30T00:35:42;12.10;99.90
54082;DHT22;39986;50.770;0.266;2024-01-30T00:38:07;12.10;99.90
54082;DHT22;39986;50.770;0.266;2024-01-30T00:40:33;12.00;99.90
54082;DHT22;39986;50.770;0.266;2024-01-30T00:42:58;12.00;99.90
54082;DHT22;39986;50.770;0.266;2024-01-30T00:47:50;10.90;99.90
54082;DHT22;39986;50.770;0.266;2024-01-30T00:52:41;12.00;99.90
54082;DHT22;39986;50.770;0.266;2024-01-30T00:55:10;12.00;99.90
54082;DHT22;39986;50.770;0.266;2024-01-30T00:57:36;12.10;99.90
54082;DHT22;39986;50.770;0.266;2024-01-30T01:00:02;12.10;99.90
54082;DHT22;39986;50.770;0.266;2024-01-30T01:02:28;12.00;99.90
54082;DHT22;39986;50.770;0.266;2024-01-30T01:04:54;11.80;99.90
54082;DHT22;39986;50.770;0.266;2024-01-30T01:07:19;11.90;99.90
54082;DHT22;39986;50.770;0.266;2024-01-30T01:09:45;12.10;99.90
54082;DHT22;39986;50.770;0.266;2024-01-30T01:12:10;11.90;99.90
54082;DHT22;39986;50.770;0.266;2024-01-30T01:14:36;12.30;99.90
54082;DHT22;39986;50.770;0.266;2024-01-30T01:19:27;11.90;99.90
54082;DHT22;39986;50.770;0.266;2024-01-30T01:21:53;11.90;99.90
54082;DHT22;39986;50.770;0.266;2024-01-30T01:24:18;11.80;99.90
54082;DHT22;39986;50.770;0.266;2024-01-30T01:26:44;11.70;99.90
54082;DHT22;39986;50.770;0.266;2024-01-30T01:29:09;11.70;99.90
54082;DHT22;39986;50.770;0.266;2024-01-30T01:34:11;11.60;99.90
54082;DHT22;39986;50.770;0.266;2024-01-30T01:36:38;11.50;99.90
54082;DHT22;39986;50.770;0.266;2024-01-30T01:39:03;11.50;99.90
54082;DHT22;39986;50.770;0.266;2024-01-30T01:41:29;11.50;99.90
54082;DHT22;39986;50.770;0.266;2024-01-30T01:43:55;11.60;99.90
54082;DHT22;39986;50.770;0.266;2024-01-30T01:48:46;11.50;99.90
54082;DHT22;39986;50.770;0.266;2024-01-30T01:51:12;11.30;99.90
54082;DHT22;39986;50.770;0.266;2024-01-30T01:56:04;11.20;99.90
54082;DHT22;39986;50.770;0.266;2024-01-30T01:58:30;11.20;99.90
54082;DHT22;39986;50.770;0.266;2024-01-30T02:03:21;11.10;99.90
54082;DHT22;39986;50.770;0.266;2024-01-30T02:05:47;11.10;99.90
54082;DHT22;39986;50.770;0.266;2024-01-30T02:08:13;11.10;99.90
54082;DHT22;39986;50.770;0.266;2024-01-30T02:10:38;11.10;99.90
54082;DHT22;39986;50.770;0.266;2024-01-30T02:15:30;10.80;99.90
54082;DHT22;39986;50.770;0.266;2024-01-30T02:17:56;10.80;99.90
54082;DHT22;39986;50.770;0.266;2024-01-30T02:20:21;10.90;99.90
54082;DHT22;39986;50.770;0.266;2024-01-30T02:22:47;10.80;99.90
54082;DHT22;39986;50.770;0.266;2024-01-30T02:30:05;10.60;99.90
54082;DHT22;39986;50.770;0.266;2024-01-30T02:32:31;10.50;99.90
54082;DHT22;39986;50.770;0.266;2024-01-30T02:37:22;10.50;99.90
54082;DHT22;39986;50.770;0.266;2024-01-30T02:39:48;10.40;99.90
54082;DHT22;39986;50.770;0.266;2024-01-30T02:42:13;10.40;99.90
54082;DHT22;39986;50.770;0.266;2024-01-30T02:44:39;10.40;99.90
54082;DHT22;39986;50.770;0.266;2024-01-30T02:47:04;10.40;99.90
54082;DHT22;39986;50.770;0.266;2024-01-30T02:49:30;10.50;99.90
54082;DHT22;39986;50.770;0.266;2024-01-30T02:54:22;10.50;99.90
54082;DHT22;39986;50.770;0.266;2024-01-30T02:56:47;10.60;99.90
54082;DHT22;39986;50.770;0.266;2024-01-30T03:04:05;10.50;99.90
54082;DHT22;39986;50.770;0.266;2024-01-30T03:08:56;10.30;99.90
54082;DHT22;39986;50.770;0.266;2024-01-30T03:11:22;10.40;99.90
54082;DHT22;39986;50.770;0.266;2024-01-30T03:13:47;10.20;99.90
54082;DHT22;39986;50.770;0.266;2024-01-30T03:16:13;10.40;99.90
54082;DHT22;39986;50.770;0.266;2024-01-30T03:21:04;10.20;99.90
54082;DHT22;39986;50.770;0.266;2024-01-30T03:23:30;10.20;99.90
54082;DHT22;39986;50.770;0.266;2024-01-30T03:25:57;10.20;99.90
54082;DHT22;39986;50.770;0.266;2024-01-30T03:28:23;10.20;99.90
54082;DHT22;39986;50.770;0.266;2024-01-30T03:30:48;10.30;99.90
54082;DHT22;39986;50.770;0.266;2024-01-30T03:35:40;10.20;99.90
54082;DHT22;39986;50.770;0.266;2024-01-30T03:38:05;10.20;99.90
54082;DHT22;39986;50.770;0.266;2024-01-30T03:40:31;10.20;99.90
54082;DHT22;39986;50.770;0.266;2024-01-30T03:42:56;10.20;99.90
54082;DHT22;39986;50.770;0.266;2024-01-30T03:45:22;10.10;99.90
54082;DHT22;39986;50.770;0.266;2024-01-30T03:47:47;10.10;99.90
54082;DHT22;39986;50.770;0.266;2024-01-30T03:52:39;10.10;99.90
54082;DHT22;39986;50.770;0.266;2024-01-30T03:55:04;9.90;99.90
54082;DHT22;39986;50.770;0.266;2024-01-30T03:57:30;9.90;99.90
54082;DHT22;39986;50.770;0.266;2024-01-30T03:59:55;10.00;99.90
54082;DHT22;39986;50.770;0.266;2024-01-30T04:02:21;10.00;99.90
54082;DHT22;39986;50.770;0.266;2024-01-30T04:04:46;10.10;99.90
54082;DHT22;39986;50.770;0.266;2024-01-30T04:09:38;10.10;99.90
54082;DHT22;39986;50.770;0.266;2024-01-30T04:12:04;10.00;99.90
54082;DHT22;39986;50.770;0.266;2024-01-30T04:14:29;10.20;99.90
54082;DHT22;39986;50.770;0.266;2024-01-30T04:16:55;9.90;99.90
54082;DHT22;39986;50.770;0.266;2024-01-30T04:19:20;10.00;99.90
54082;DHT22;39986;50.770;0.266;2024-01-30T04:21:46;10.10;99.90
54082;DHT22;39986;50.770;0.266;2024-01-30T04:24:11;9.90;99.90
54082;DHT22;39986;50.770;0.266;2024-01-30T04:26:37;9.90;99.90
54082;DHT22;39986;50.770;0.266;2024-01-30T04:29:02;9.90;99.90
54082;DHT22;39986;50.770;0.266;2024-01-30T04:31:28;9.90;99.90
54082;DHT22;39986;50.770;0.266;2024-01-30T04:33:53;9.80;99.90
54082;DHT22;39986;50.770;0.266;2024-01-30T04:36:19;9.80;99.90
54082;DHT22;39986;50.770;0.266;2024-01-30T04:38:44;9.90;99.90
54082;DHT22;39986;50.770;0.266;2024-01-30T04:41:10;9.70;99.90
54082;DHT22;39986;50.770;0.266;2024-01-30T04:43:35;9.80;99.90
54082;DHT22;39986;50.770;0.266;2024-01-30T04:46:01;9.70;99.90
54082;DHT22;39986;50.770;0.266;2024-01-30T04:50:53;9.60;99.90
54082;DHT22;39986;50.770;0.266;2024-01-30T04:53:18;9.40;99.90
54082;DHT22;39986;50.770;0.266;2024-01-30T04:55:44;9.40;99.90
54082;DHT22;39986;50.770;0.266;2024-01-30T04:58:09;9.40;99.90
54082;DHT22;39986;50.770;0.266;2024-01-30T05:00:35;9.20;99.90
54082;DHT22;39986;50.770;0.266;2024-01-30T05:03:00;9.20;99.90
54082;DHT22;39986;50.770;0.266;2024-01-30T05:05:26;9.20;99.90
54082;DHT22;39986;50.770;0.266;2024-01-30T05:07:51;9.20;99.90
54082;DHT22;39986;50.770;0.266;2024-01-30T05:10:17;9.40;99.90
54082;DHT22;39986;50.770;0.266;2024-01-30T05:12:43;9.40;99.90
54082;DHT22;39986;50.770;0.266;2024-01-30T05:15:09;9.40;99.90
54082;DHT22;39986;50.770;0.266;2024-01-30T05:17:34;9.30;99.90
54082;DHT22;39986;50.770;0.266;2024-01-30T05:20:00;9.30;99.90
54082;DHT22;39986;50.770;0.266;2024-01-30T05:22:25;9.50;99.90
54082;DHT22;39986;50.770;0.266;2024-01-30T05:24:51;9.40;99.90
54082;DHT22;39986;50.770;0.266;2024-01-30T05:27:16;9.30;99.90
54082;DHT22;39986;50.770;0.266;2024-01-30T05:29:42;9.30;99.90
54082;DHT22;39986;50.770;0.266;2024-01-30T05:32:07;9.30;99.90
54082;DHT22;39986;50.770;0.266;2024-01-30T05:36:59;9.30;99.90
54082;DHT22;39986;50.770;0.266;2024-01-30T05:41:50;9.20;99.90
54082;DHT22;39986;50.770;0.266;2024-01-30T05:44:16;9.30;99.90
54082;DHT22;39986;50.770;0.266;2024-01-30T05:46:41;9.30;99.90
54082;DHT22;39986;50.770;0.266;2024-01-30T05:49:07;9.30;99.90
54082;DHT22;39986;50.770;0.266;2024-01-30T05:51:32;9.50;99.90
54082;DHT22;39986;50.770;0.266;2024-01-30T05:53:58;9.30;99.90
54082;DHT22;39986;50.770;0.266;2024-01-30T05:56:23;9.20;99.90
54082;DHT22;39986;50.770;0.266;2024-01-30T05:58:49;9.20;99.90
54082;DHT22;39986;50.770;0.266;2024-01-30T06:01:15;9.10;99.90
54082;DHT22;39986;50.770;0.266;2024-01-30T06:03:41;9.10;99.90
54082;DHT22;39986;50.770;0.266;2024-01-30T06:08:34;9.10;99.90
54082;DHT22;39986;50.770;0.266;2024-01-30T06:13:26;9.10;99.90
54082;DHT22;39986;50.770;0.266;2024-01-30T06:15:52;9.10;99.90
54082;DHT22;39986;50.770;0.266;2024-01-30T06:20:43;5.30;99.90
54082;DHT22;39986;50.770;0.266;2024-01-30T06:23:09;9.30;99.90
54082;DHT22;39986;50.770;0.266;2024-01-30T06:25:34;9.40;99.90
54082;DHT22;39986;50.770;0.266;2024-01-30T06:28:00;9.30;99.90
54082;DHT22;39986;50.770;0.266;2024-01-30T06:30:25;9.30;99.90
54082;DHT22;39986;50.770;0.266;2024-01-30T06:32:51;9.30;99.90
54082;DHT22;39986;50.770;0.266;2024-01-30T06:35:16;9.40;99.90
54082;DHT22;39986;50.770;0.266;2024-01-30T06:37:42;9.30;99.90
54082;DHT22;39986;50.770;0.266;2024-01-30T06:42:34;9.40;99.90
54082;DHT22;39986;50.770;0.266;2024-01-30T06:44:59;9.40;99.90
54082;DHT22;39986;50.770;0.266;2024-01-30T06:47:25;9.40;99.90
54082;DHT22;39986;50.770;0.266;2024-01-30T06:49:50;12.30;99.90
54082;DHT22;39986;50.770;0.266;2024-01-30T06:52:16;9.40;99.90
54082;DHT22;39986;50.770;0.266;2024-01-30T06:59:37;9.20;99.90
54082;DHT22;39986;50.770;0.266;2024-01-30T07:02:11;9.30;99.90
54082;DHT22;39986;50.770;0.266;2024-01-30T07:07:03;9.30;99.90
54082;DHT22;39986;50.770;0.266;2024-01-30T07:11:56;9.40;99.90
54082;DHT22;39986;50.770;0.266;2024-01-30T07:14:24;9.30;99.90
54082;DHT22;39986;50.770;0.266;2024-01-30T07:16:49;9.10;99.90
54082;DHT22;39986;50.770;0.266;2024-01-30T07:21:41;9.10;99.90
54082;DHT22;39986;50.770;0.266;2024-01-30T07:26:33;9.20;99.90
54082;DHT22;39986;50.770;0.266;2024-01-30T07:31:24;9.10;99.90
54082;DHT22;39986;50.770;0.266;2024-01-30T07:36:16;9.10;99.90
54082;DHT22;39986;50.770;0.266;2024-01-30T07:38:41;9.00;99.90
54082;DHT22;39986;50.770;0.266;2024-01-30T07:41:06;9.10;99.90
54082;DHT22;39986;50.770;0.266;2024-01-30T07:53:18;9.30;99.90
54082;DHT22;39986;50.770;0.266;2024-01-30T08:00:37;9.10;99.90
54082;DHT22;39986;50.770;0.266;2024-01-30T08:03:03;9.10;99.90
54082;DHT22;39986;50.770;0.266;2024-01-30T08:07:55;9.10;99.90
54082;DHT22;39986;50.770;0.266;2024-01-30T08:20:04;9.30;99.90
54082;DHT22;39986;50.770;0.266;2024-01-30T08:34:41;9.20;99.90
54082;DHT22;39986;50.770;0.266;2024-01-30T08:39:33;9.20;99.90
54082;DHT22;39986;50.770;0.266;2024-01-30T08:44:25;9.30;99.90
54082;DHT22;39986;50.770;0.266;2024-01-30T08:46:50;9.20;99.90
54082;DHT22;39986;50.770;0.266;2024-01-30T09:06:17;9.30;99.90
54082;DHT22;39986;50.770;0.266;2024-01-30T09:13:36;9.40;99.90
54082;DHT22;39986;50.770;0.266;2024-01-30T09:16:01;9.30;99.90
54082;DHT22;39986;50.770;0.266;2024-01-30T09:20:53;9.30;99.90
54082;DHT22;39986;50.770;0.266;2024-01-30T09:25:45;9.40;99.90
54082;DHT22;39986;50.770;0.266;2024-01-30T09:28:10;9.50;99.90
54082;DHT22;39986;50.770;0.266;2024-01-30T09:30:36;9.30;99.90
54082;DHT22;39986;50.770;0.266;2024-01-30T09:37:54;9.50;99.90
54082;DHT22;39986;50.770;0.266;2024-01-30T09:42:49;9.50;99.90
54082;DHT22;39986;50.770;0.266;2024-01-30T09:47:42;9.50;99.90
54082;DHT22;39986;50.770;0.266;2024-01-30T09:50:09;9.60;99.90
54082;DHT22;39986;50.770;0.266;2024-01-30T09:57:26;9.50;99.90
54082;DHT22;39986;50.770;0.266;2024-01-30T10:02:19;9.00;99.90
54082;DHT22;39986;50.770;0.266;2024-01-30T10:07:11;9.50;99.90
54082;DHT22;39986;50.770;0.266;2024-01-30T10:16:57;9.70;99.90
54082;DHT22;39986;50.770;0.266;2024-01-30T10:19:22;9.70;99.90
54082;DHT22;39986;50.770;0.266;2024-01-30T10:21:48;9.90;99.90
54082;DHT22;39986;50.770;0.266;2024-01-30T10:24:14;10.00;99.90
54082;DHT22;39986;50.770;0.266;2024-01-30T10:26:39;10.00;99.90
54082;DHT22;39986;50.770;0.266;2024-01-30T10:29:05;9.90;99.90
54082;DHT22;39986;50.770;0.266;2024-01-30T10:31:30;10.00;99.90
54082;DHT22;39986;50.770;0.266;2024-01-30T10:33:56;9.50;99.90
54082;DHT22;39986;50.770;0.266;2024-01-30T10:36:22;10.10;99.90
54082;DHT22;39986;50.770;0.266;2024-01-30T10:38:50;10.00;99.90
54082;DHT22;39986;50.770;0.266;2024-01-30T10:41:16;9.90;99.90
54082;DHT22;39986;50.770;0.266;2024-01-30T10:43:46;10.00;99.90
54082;DHT22;39986;50.770;0.266;2024-01-30T10:48:42;10.00;99.90
54082;DHT22;39986;50.770;0.266;2024-01-30T10:51:08;10.10;99.90
54082;DHT22;39986;50.770;0.266;2024-01-30T10:53:34;9.90;99.90
54082;DHT22;39986;50.770;0.266;2024-01-30T10:58:27;10.00;99.90
54082;DHT22;39986;50.770;0.266;2024-01-30T11:00:54;10.00;99.90
54082;DHT22;39986;50.770;0.266;2024-01-30T11:05:50;10.20;99.90
54082;DHT22;39986;50.770;0.266;2024-01-30T11:08:23;10.10;99.90
54082;DHT22;39986;50.770;0.266;2024-01-30T11:10:49;10.10;99.90
54082;DHT22;39986;50.770;0.266;2024-01-30T11:15:41;10.10;99.90
54082;DHT22;39986;50.770;0.266;2024-01-30T11:20:32;10.00;99.90
54082;DHT22;39986;50.770;0.266;2024-01-30T11:52:13;10.50;99.90
54082;DHT22;39986;50.770;0.266;2024-01-30T11:54:39;10.50;99.90
54082;DHT22;39986;50.770;0.266;2024-01-30T11:59:31;10.50;99.90
54082;DHT22;39986;50.770;0.266;2024-01-30T12:01:56;10.50;99.90
54082;DHT22;39986;50.770;0.266;2024-01-30T12:06:51;10.60;99.90
54082;DHT22;39986;50.770;0.266;2024-01-30T12:09:16;10.40;99.90
54082;DHT22;39986;50.770;0.266;2024-01-30T12:19:11;10.30;99.90
54082;DHT22;39986;50.770;0.266;2024-01-30T12:21:46;10.40;99.90
54082;DHT22;39986;50.770;0.266;2024-01-30T12:24:11;10.20;99.90
54082;DHT22;39986;50.770;0.266;2024-01-30T12:26:37;10.10;99.90
54082;DHT22;39986;50.770;0.266;2024-01-30T12:29:03;10.20;99.90
54082;DHT22;39986;50.770;0.266;2024-01-30T12:31:31;10.20;99.90
54082;DHT22;39986;50.770;0.266;2024-01-30T12:36:23;10.20;99.90
54082;DHT22;39986;50.770;0.266;2024-01-30T12:41:15;10.20;99.90
54082;DHT22;39986;50.770;0.266;2024-01-30T12:46:07;10.00;99.90
54082;DHT22;39986;50.770;0.266;2024-01-30T12:48:32;10.10;99.90
54082;DHT22;39986;50.770;0.266;2024-01-30T12:50:58;10.00;99.90
54082;DHT22;39986;50.770;0.266;2024-01-30T12:53:23;10.00;99.90
54082;DHT22;39986;50.770;0.266;2024-01-30T12:55:49;14.20;99.90
54082;DHT22;39986;50.770;0.266;2024-01-30T12:58:15;10.10;99.90
54082;DHT22;39986;50.770;0.266;2024-01-30T13:00:41;9.80;99.90
54082;DHT22;39986;50.770;0.266;2024-01-30T13:05:34;10.40;99.90
54082;DHT22;39986;50.770;0.266;2024-01-30T13:07:59;9.70;99.90
54082;DHT22;39986;50.770;0.266;2024-01-30T13:10:25;9.90;99.90
54082;DHT22;39986;50.770;0.266;2024-01-30T13:17:43;9.70;99.90
54082;DHT22;39986;50.770;0.266;2024-01-30T13:22:35;9.80;99.90
54082;DHT22;39986;50.770;0.266;2024-01-30T13:25:00;13.10;99.90
54082;DHT22;39986;50.770;0.266;2024-01-30T13:27:26;9.70;99.90
54082;DHT22;39986;50.770;0.266;2024-01-30T13:29:52;9.70;99.90
54082;DHT22;39986;50.770;0.266;2024-01-30T13:42:01;10.10;99.90
54082;DHT22;39986;50.770;0.266;2024-01-30T13:46:54;9.90;99.90
54082;DHT22;39986;50.770;0.266;2024-01-30T13:56:40;9.80;99.90
54082;DHT22;39986;50.770;0.266;2024-01-30T14:06:24;9.80;99.90
54082;DHT22;39986;50.770;0.266;2024-01-30T14:11:16;9.60;99.90
54082;DHT22;39986;50.770;0.266;2024-01-30T14:13:41;9.50;99.90
54082;DHT22;39986;50.770;0.266;2024-01-30T14:16:07;9.60;99.90
54082;DHT22;39986;50.770;0.266;2024-01-30T14:18:32;9.60;99.90
54082;DHT22;39986;50.770;0.266;2024-01-30T14:20:58;9.60;99.90
54082;DHT22;39986;50.770;0.266;2024-01-30T14:23:23;9.50;99.90
54082;DHT22;39986;50.770;0.266;2024-01-30T14:25:49;9.50;99.90
54082;DHT22;39986;50.770;0.266;2024-01-30T14:28:14;9.40;99.90
54082;DHT22;39986;50.770;0.266;2024-01-30T14:30:40;9.40;99.90
54082;DHT22;39986;50.770;0.266;2024-01-30T14:33:05;9.50;99.90
54082;DHT22;39986;50.770;0.266;2024-01-30T14:35:32;9.40;99.90
54082;DHT22;39986;50.770;0.266;2024-01-30T14:40:24;9.50;99.90
54082;DHT22;39986;50.770;0.266;2024-01-30T14:45:16;9.50;99.90
54082;DHT22;39986;50.770;0.266;2024-01-30T14:47:41;9.40;99.90
54082;DHT22;39986;50.770;0.266;2024-01-30T14:50:07;9.40;99.90
54082;DHT22;39986;50.770;0.266;2024-01-30T14:52:33;9.40;99.90
54082;DHT22;39986;50.770;0.266;2024-01-30T14:54:59;9.50;99.90
54082;DHT22;39986;50.770;0.266;2024-01-30T14:59:50;9.40;99.90
54082;DHT22;39986;50.770;0.266;2024-01-30T15:21:43;9.80;99.90
54082;DHT22;39986;50.770;0.266;2024-01-30T15:24:09;9.30;99.90
54082;DHT22;39986;50.770;0.266;2024-01-30T15:29:03;9.30;99.90
54082;DHT22;39986;50.770;0.266;2024-01-30T15:33:55;9.30;99.90
54082;DHT22;39986;50.770;0.266;2024-01-30T15:36:22;9.30;99.90
54082;DHT22;39986;50.770;0.266;2024-01-30T15:38:48;7.40;99.90
54082;DHT22;39986;50.770;0.266;2024-01-30T15:41:13;9.30;99.90
54082;DHT22;39986;50.770;0.266;2024-01-30T15:43:39;7.80;99.90
54082;DHT22;39986;50.770;0.266;2024-01-30T15:46:04;9.30;99.90
54082;DHT22;39986;50.770;0.266;2024-01-30T15:48:30;9.40;99.90
54082;DHT22;39986;50.770;0.266;2024-01-30T15:50:55;9.40;99.90
54082;DHT22;39986;50.770;0.266;2024-01-30T15:53:21;9.40;99.90
54082;DHT22;39986;50.770;0.266;2024-01-30T15:55:47;9.30;99.90
54082;DHT22;39986;50.770;0.266;2024-01-30T15:58:12;9.40;99.90
54082;DHT22;39986;50.770;0.266;2024-01-30T16:00:38;9.50;99.90
54082;DHT22;39986;50.770;0.266;2024-01-30T16:03:04;9.40;99.90
54082;DHT22;39986;50.770;0.266;2024-01-30T16:05:29;9.30;99.90
54082;DHT22;39986;50.770;0.266;2024-01-30T16:10:21;13.70;99.90
54082;DHT22;39986;50.770;0.266;2024-01-30T16:12:46;9.40;99.90
54082;DHT22;39986;50.770;0.266;2024-01-30T16:15:12;10.60;99.90
54082;DHT22;39986;50.770;0.266;2024-01-30T16:17:38;9.40;99.90
54082;DHT22;39986;50.770;0.266;2024-01-30T16:20:04;9.40;99.90
54082;DHT22;39986;50.770;0.266;2024-01-30T16:24:57;9.30;99.90
54082;DHT22;39986;50.770;0.266;2024-01-30T16:27:22;9.70;99.90
54082;DHT22;39986;50.770;0.266;2024-01-30T16:29:48;11.30;99.90
54082;DHT22;39986;50.770;0.266;2024-01-30T16:32:13;9.30;99.90
54082;DHT22;39986;50.770;0.266;2024-01-30T16:34:39;9.30;99.90
54082;DHT22;39986;50.770;0.266;2024-01-30T16:37:05;9.30;99.90
54082;DHT22;39986;50.770;0.266;2024-01-30T16:39:30;9.40;99.90
54082;DHT22;39986;50.770;0.266;2024-01-30T16:41:56;9.30;99.90
54082;DHT22;39986;50.770;0.266;2024-01-30T16:44:21;9.40;99.90
54082;DHT22;39986;50.770;0.266;2024-01-30T16:46:47;9.40;99.90
54082;DHT22;39986;50.770;0.266;2024-01-30T16:49:13;9.30;99.90
54082;DHT22;39986;50.770;0.266;2024-01-30T16:51:39;9.30;99.90
54082;DHT22;39986;50.770;0.266;2024-01-30T16:54:04;9.40;99.90
54082;DHT22;39986;50.770;0.266;2024-01-30T16:56:30;9.20;99.90
54082;DHT22;39986;50.770;0.266;2024-01-30T16:58:55;9.30;99.90
54082;DHT22;39986;50.770;0.266;2024-01-30T17:01:21;9.30;99.90
54082;DHT22;39986;50.770;0.266;2024-01-30T17:06:13;9.20;99.90
54082;DHT22;39986;50.770;0.266;2024-01-30T17:08:38;9.00;99.90
54082;DHT22;39986;50.770;0.266;2024-01-30T17:11:04;9.30;99.90
54082;DHT22;39986;50.770;0.266;2024-01-30T17:13:30;9.30;99.90
54082;DHT22;39986;50.770;0.266;2024-01-30T17:15:55;9.20;99.90
54082;DHT22;39986;50.770;0.266;2024-01-30T17:18:22;9.30;99.90
54082;DHT22;39986;50.770;0.266;2024-01-30T17:20:47;9.30;99.90
54082;DHT22;39986;50.770;0.266;2024-01-30T17:23:13;9.30;99.90
54082;DHT22;39986;50.770;0.266;2024-01-30T17:25:39;9.10;99.90
54082;DHT22;39986;50.770;0.266;2024-01-30T17:28:04;9.10;99.90
54082;DHT22;39986;50.770;0.266;2024-01-30T17:30:30;9.10;99.90
54082;DHT22;39986;50.770;0.266;2024-01-30T17:32:55;9.10;99.90
54082;DHT22;39986;50.770;0.266;2024-01-30T17:35:21;9.10;99.90
54082;DHT22;39986;50.770;0.266;2024-01-30T17:37:47;9.20;99.90
54082;DHT22;39986;50.770;0.266;2024-01-30T17:40:12;9.20;99.90
54082;DHT22;39986;50.770;0.266;2024-01-30T17:42:41;9.20;99.90
54082;DHT22;39986;50.770;0.266;2024-01-30T17:45:06;9.30;99.90
54082;DHT22;39986;50.770;0.266;2024-01-30T17:47:32;9.20;99.90
54082;DHT22;39986;50.770;0.266;2024-01-30T17:49:57;9.20;99.90
54082;DHT22;39986;50.770;0.266;2024-01-30T17:52:23;9.10;99.90
54082;DHT22;39986;50.770;0.266;2024-01-30T17:57:14;6.60;99.90
54082;DHT22;39986;50.770;0.266;2024-01-30T17:59:42;9.20;99.90
54082;DHT22;39986;50.770;0.266;2024-01-30T18:02:07;9.10;99.90
54082;DHT22;39986;50.770;0.266;2024-01-30T18:04:36;9.20;99.90
54082;DHT22;39986;50.770;0.266;2024-01-30T18:07:02;6.10;99.90
54082;DHT22;39986;50.770;0.266;2024-01-30T18:09:28;9.20;99.90
54082;DHT22;39986;50.770;0.266;2024-01-30T18:11:53;9.30;99.90
54082;DHT22;39986;50.770;0.266;2024-01-30T18:14:19;9.30;99.90
54082;DHT22;39986;50.770;0.266;2024-01-30T18:16:44;9.10;99.90
54082;DHT22;39986;50.770;0.266;2024-01-30T18:19:10;9.20;99.90
54082;DHT22;39986;50.770;0.266;2024-01-30T18:21:35;9.30;99.90
54082;DHT22;39986;50.770;0.266;2024-01-30T18:24:01;9.10;99.90
54082;DHT22;39986;50.770;0.266;2024-01-30T18:26:26;9.20;99.90
54082;DHT22;39986;50.770;0.266;2024-01-30T18:28:52;9.10;99.90
54082;DHT22;39986;50.770;0.266;2024-01-30T18:31:24;9.30;99.90
54082;DHT22;39986;50.770;0.266;2024-01-30T18:33:50;9.10;99.90
54082;DHT22;39986;50.770;0.266;2024-01-30T18:36:17;9.20;99.90
54082;DHT22;39986;50.770;0.266;2024-01-30T18:38:43;9.00;99.90
54082;DHT22;39986;50.770;0.266;2024-01-30T18:41:08;9.20;99.90
54082;DHT22;39986;50.770;0.266;2024-01-30T18:43:34;9.00;99.90
54082;DHT22;39986;50.770;0.266;2024-01-30T18:46:00;9.10;99.90
54082;DHT22;39986;50.770;0.266;2024-01-30T18:48:26;9.10;99.90
54082;DHT22;39986;50.770;0.266;2024-01-30T18:50:51;8.90;99.90
54082;DHT22;39986;50.770;0.266;2024-01-30T18:53:17;8.90;99.90
54082;DHT22;39986;50.770;0.266;2024-01-30T18:55:43;8.90;99.90
54082;DHT22;39986;50.770;0.266;2024-01-30T18:58:08;8.80;99.90
54082;DHT22;39986;50.770;0.266;2024-01-30T19:00:34;9.00;99.90
54082;DHT22;39986;50.770;0.266;2024-01-30T19:03:04;12.80;99.90
54082;DHT22;39986;50.770;0.266;2024-01-30T19:05:30;8.90;99.90
54082;DHT22;39986;50.770;0.266;2024-01-30T19:07:55;9.00;99.90
54082;DHT22;39986;50.770;0.266;2024-01-30T19:12:47;8.80;99.90
54082;DHT22;39986;50.770;0.266;2024-01-30T19:15:12;8.80;99.90
54082;DHT22;39986;50.770;0.266;2024-01-30T19:17:38;8.80;99.90
54082;DHT22;39986;50.770;0.266;2024-01-30T19:20:04;8.90;99.90
54082;DHT22;39986;50.770;0.266;2024-01-30T19:22:32;8.90;99.90
54082;DHT22;39986;50.770;0.266;2024-01-30T19:24:58;8.70;99.90
54082;DHT22;39986;50.770;0.266;2024-01-30T19:27:27;9.00;99.90
54082;DHT22;39986;50.770;0.266;2024-01-30T19:29:52;8.90;99.90
54082;DHT22;39986;50.770;0.266;2024-01-30T19:32:18;8.90;99.90
54082;DHT22;39986;50.770;0.266;2024-01-30T19:34:44;8.70;99.90
54082;DHT22;39986;50.770;0.266;2024-01-30T19:37:09;7.30;99.90
54082;DHT22;39986;50.770;0.266;2024-01-30T19:39:35;8.80;99.90
54082;DHT22;39986;50.770;0.266;2024-01-30T19:42:00;8.90;99.90
54082;DHT22;39986;50.770;0.266;2024-01-30T19:44:26;9.50;99.90
54082;DHT22;39986;50.770;0.266;2024-01-30T19:46:51;8.80;99.90
54082;DHT22;39986;50.770;0.266;2024-01-30T19:49:17;8.90;99.90
54082;DHT22;39986;50.770;0.266;2024-01-30T19:51:43;9.40;99.90
54082;DHT22;39986;50.770;0.266;2024-01-30T19:54:11;9.00;99.90
54082;DHT22;39986;50.770;0.266;2024-01-30T19:56:43;9.00;99.90
54082;DHT22;39986;50.770;0.266;2024-01-30T19:59:08;9.00;99.90
54082;DHT22;39986;50.770;0.266;2024-01-30T20:01:34;9.00;99.90
54082;DHT22;39986;50.770;0.266;2024-01-30T20:03:59;8.90;99.90
54082;DHT22;39986;50.770;0.266;2024-01-30T20:06:25;8.90;99.90
54082;DHT22;39986;50.770;0.266;2024-01-30T20:08:50;9.00;99.90
54082;DHT22;39986;50.770;0.266;2024-01-30T20:11:16;8.80;99.90
54082;DHT22;39986;50.770;0.266;2024-01-30T20:13:41;8.70;99.90
54082;DHT22;39986;50.770;0.266;2024-01-30T20:16:07;8.90;99.90
54082;DHT22;39986;50.770;0.266;2024-01-30T20:20:59;9.10;99.90
54082;DHT22;39986;50.770;0.266;2024-01-30T20:23:24;9.00;99.90
54082;DHT22;39986;50.770;0.266;2024-01-30T20:25:50;9.00;99.90
54082;DHT22;39986;50.770;0.266;2024-01-30T20:28:16;9.10;99.90
54082;DHT22;39986;50.770;0.266;2024-01-30T20:30:42;9.00;99.90
54082;DHT22;39986;50.770;0.266;2024-01-30T20:33:07;9.00;99.90
54082;DHT22;39986;50.770;0.266;2024-01-30T20:35:33;9.90;99.90
54082;DHT22;39986;50.770;0.266;2024-01-30T20:37:59;9.10;99.90
54082;DHT22;39986;50.770;0.266;2024-01-30T20:40:24;9.10;99.90
54082;DHT22;39986;50.770;0.266;2024-01-30T20:42:50;10.60;99.90
54082;DHT22;39986;50.770;0.266;2024-01-30T20:45:15;8.80;99.90
54082;DHT22;39986;50.770;0.266;2024-01-30T20:47:41;9.10;99.90
54082;DHT22;39986;50.770;0.266;2024-01-30T20:50:06;9.00;99.90
54082;DHT22;39986;50.770;0.266;2024-01-30T20:52:32;9.20;99.90
54082;DHT22;39986;50.770;0.266;2024-01-30T20:54:58;9.20;99.90
54082;DHT22;39986;50.770;0.266;2024-01-30T20:57:23;9.00;99.90
54082;DHT22;39986;50.770;0.266;2024-01-30T20:59:49;9.10;99.90
54082;DHT22;39986;50.770;0.266;2024-01-30T21:02:14;9.10;99.90
54082;DHT22;39986;50.770;0.266;2024-01-30T21:04:40;9.00;99.90
54082;DHT22;39986;50.770;0.266;2024-01-30T21:07:05;8.90;99.90
54082;DHT22;39986;50.770;0.266;2024-01-30T21:09:31;8.90;99.90